sensor_id;sensor_type;location;lat;lon;timestamp;pressure;altitude;pressure_sealevel;temperature;humidity
39209;BME280;24929;51.982;4.664;2023-05-11T00:00:41;76609.97;;;-143.36;59.38
39209;BME280;24929;51.982;4.664;2023-05-11T00:03:08;76611.97;;;-143.36;59.14
39209;BME280;24929;51.982;4.664;2023-05-11T00:05:34;76622.00;;;-143.36;59.06
39209;BME280;24929;51.982;4.664;2023-05-11T00:07:59;76611.97;;;-143.36;59.17
39209;BME280;24929;51.982;4.664;2023-05-11T00:10:27;76583.88;;;-143.36;59.54
39209;BME280;24929;51.982;4.664;2023-05-11T00:12:52;76605.94;;;-143.36;59.54
39209;BME280;24929;51.982;4.664;2023-05-11T00:15:17;76607.97;;;-143.36;59.28
39209;BME280;24929;51.982;4.664;2023-05-11T00:17:43;76607.97;;;-143.36;59.48
39209;BME280;24929;51.982;4.664;2023-05-11T00:20:09;76595.91;;;-143.36;59.71
39209;BME280;24929;51.982;4.664;2023-05-11T00:22:35;76593.91;;;-143.36;59.28
39209;BME280;24929;51.982;4.664;2023-05-11T00:25:00;76599.94;;;-143.36;59.22
39209;BME280;24929;51.982;4.664;2023-05-11T00:27:26;76595.91;;;-143.36;59.26
39209;BME280;24929;51.982;4.664;2023-05-11T00:29:51;76613.97;;;-143.36;59.33
39209;BME280;24929;51.982;4.664;2023-05-11T00:32:17;76615.97;;;-143.36;59.11
39209;BME280;24929;51.982;4.664;2023-05-11T00:34:42;76615.97;;;-143.36;59.07
39209;BME280;24929;51.982;4.664;2023-05-11T00:37:07;76593.91;;;-143.36;58.42
39209;BME280;24929;51.982;4.664;2023-05-11T00:39:33;76607.97;;;-143.36;58.84
39209;BME280;24929;51.982;4.664;2023-05-11T00:42:04;76615.97;;;-143.36;58.64
39209;BME280;24929;51.982;4.664;2023-05-11T00:44:29;76607.97;;;-143.36;58.20
39209;BME280;24929;51.982;4.664;2023-05-11T00:46:55;76622.00;;;-143.36;58.95
39209;BME280;24929;51.982;4.664;2023-05-11T00:49:21;76618.00;;;-143.36;59.17
39209;BME280;24929;51.982;4.664;2023-05-11T00:51:47;76630.03;;;-143.36;59.24
39209;BME280;24929;51.982;4.664;2023-05-11T00:54:13;76622.00;;;-143.36;59.19
39209;BME280;24929;51.982;4.664;2023-05-11T00:56:40;76618.00;;;-143.36;58.93
39209;BME280;24929;51.982;4.664;2023-05-11T00:59:07;76603.94;;;-143.36;59.16
39209;BME280;24929;51.982;4.664;2023-05-11T01:01:32;76622.00;;;-143.36;58.83
39209;BME280;24929;51.982;4.664;2023-05-11T01:03:57;76620.00;;;-143.36;58.85
39209;BME280;24929;51.982;4.664;2023-05-11T01:17:39;76527.69;;;-143.36;57.29
39209;BME280;24929;51.982;4.664;2023-05-11T01:20:11;76565.81;;;-143.36;57.99
39209;BME280;24929;51.982;4.664;2023-05-11T01:31:09;76547.75;;;-143.36;57.85
39209;BME280;24929;51.982;4.664;2023-05-11T01:33:44;76531.69;;;-143.36;57.52
39209;BME280;24929;51.982;4.664;2023-05-11T01:36:12;76583.88;;;-143.36;58.04
39209;BME280;24929;51.982;4.664;2023-05-11T01:38:40;76539.72;;;-143.36;57.78
39209;BME280;24929;51.982;4.664;2023-05-11T01:41:11;76563.81;;;-143.36;58.15
39209;BME280;24929;51.982;4.664;2023-05-11T01:43:39;76531.69;;;-143.36;57.65
39209;BME280;24929;51.982;4.664;2023-05-11T01:46:05;76541.72;;;-143.36;57.68
39209;BME280;24929;51.982;4.664;2023-05-11T01:48:38;76519.66;;;-143.36;57.23
39209;BME280;24929;51.982;4.664;2023-05-11T01:51:04;76537.72;;;-143.36;57.18
39209;BME280;24929;51.982;4.664;2023-05-11T01:53:33;76533.72;;;-143.36;56.85
39209;BME280;24929;51.982;4.664;2023-05-11T01:56:00;76545.75;;;-143.36;56.87
39209;BME280;24929;51.982;4.664;2023-05-11T01:58:27;76539.72;;;-143.36;57.02
39209;BME280;24929;51.982;4.664;2023-05-11T02:00:53;76581.88;;;-143.36;57.13
39209;BME280;24929;51.982;4.664;2023-05-11T02:03:20;76551.75;;;-143.36;57.44
39209;BME280;24929;51.982;4.664;2023-05-11T02:05:48;76543.75;;;-143.36;57.28
39209;BME280;24929;51.982;4.664;2023-05-11T02:08:15;76537.72;;;-143.36;56.91
39209;BME280;24929;51.982;4.664;2023-05-11T02:10:41;76545.75;;;-143.36;57.12
39209;BME280;24929;51.982;4.664;2023-05-11T02:13:09;76533.72;;;-143.36;57.47
39209;BME280;24929;51.982;4.664;2023-05-11T02:15:39;76519.66;;;-143.36;56.92
39209;BME280;24929;51.982;4.664;2023-05-11T02:18:06;76535.72;;;-143.36;56.74
39209;BME280;24929;51.982;4.664;2023-05-11T02:20:34;76539.72;;;-143.36;57.27
39209;BME280;24929;51.982;4.664;2023-05-11T02:23:01;76525.69;;;-143.36;57.18
39209;BME280;24929;51.982;4.664;2023-05-11T02:25:28;76513.63;;;-143.36;57.13
39209;BME280;24929;51.982;4.664;2023-05-11T02:27:54;76537.72;;;-143.36;57.20
39209;BME280;24929;51.982;4.664;2023-05-11T02:30:19;76547.75;;;-143.36;57.45
39209;BME280;24929;51.982;4.664;2023-05-11T02:32:50;76493.56;;;-143.36;57.04
39209;BME280;24929;51.982;4.664;2023-05-11T02:35:24;76499.59;;;-143.36;56.95
39209;BME280;24929;51.982;4.664;2023-05-11T02:37:53;76515.66;;;-143.36;57.33
39209;BME280;24929;51.982;4.664;2023-05-11T02:40:24;76491.56;;;-143.36;56.73
39209;BME280;24929;51.982;4.664;2023-05-11T02:42:54;76495.59;;;-143.36;56.86
39209;BME280;24929;51.982;4.664;2023-05-11T02:45:22;76517.66;;;-143.36;57.27
39209;BME280;24929;51.982;4.664;2023-05-11T02:47:53;76489.56;;;-143.36;56.65
39209;BME280;24929;51.982;4.664;2023-05-11T02:50:22;76501.59;;;-143.36;56.85
39209;BME280;24929;51.982;4.664;2023-05-11T02:52:50;76501.59;;;-143.36;56.64
39209;BME280;24929;51.982;4.664;2023-05-11T02:55:19;76531.69;;;-143.36;56.68
39209;BME280;24929;51.982;4.664;2023-05-11T02:57:45;76535.72;;;-143.36;56.51
39209;BME280;24929;51.982;4.664;2023-05-11T03:00:11;76539.72;;;-143.36;56.61
39209;BME280;24929;51.982;4.664;2023-05-11T03:02:37;76559.78;;;-143.36;56.80
39209;BME280;24929;51.982;4.664;2023-05-11T03:05:03;76553.78;;;-143.36;57.29
39209;BME280;24929;51.982;4.664;2023-05-11T03:07:29;76545.75;;;-143.36;57.19
39209;BME280;24929;51.982;4.664;2023-05-11T03:09:55;76537.72;;;-143.36;56.96
39209;BME280;24929;51.982;4.664;2023-05-11T03:12:20;76537.72;;;-143.36;56.78
39209;BME280;24929;51.982;4.664;2023-05-11T03:14:46;76517.66;;;-143.36;56.79
39209;BME280;24929;51.982;4.664;2023-05-11T03:17:13;76507.63;;;-143.36;57.01
39209;BME280;24929;51.982;4.664;2023-05-11T03:19:40;76511.63;;;-143.36;56.89
39209;BME280;24929;51.982;4.664;2023-05-11T03:22:07;76523.66;;;-143.36;56.86
39209;BME280;24929;51.982;4.664;2023-05-11T03:24:34;76523.66;;;-143.36;56.98
39209;BME280;24929;51.982;4.664;2023-05-11T03:27:00;76535.72;;;-143.36;56.97
39209;BME280;24929;51.982;4.664;2023-05-11T03:29:26;76507.63;;;-143.36;56.78
39209;BME280;24929;51.982;4.664;2023-05-11T03:31:53;76541.72;;;-143.36;57.06
39209;BME280;24929;51.982;4.664;2023-05-11T03:34:19;76565.81;;;-143.36;58.10
39209;BME280;24929;51.982;4.664;2023-05-11T03:36:47;76531.69;;;-143.36;58.11
39209;BME280;24929;51.982;4.664;2023-05-11T03:39:15;76535.72;;;-143.36;58.47
39209;BME280;24929;51.982;4.664;2023-05-11T03:41:43;76519.66;;;-143.36;58.21
39209;BME280;24929;51.982;4.664;2023-05-11T03:44:09;76527.69;;;-143.36;58.43
39209;BME280;24929;51.982;4.664;2023-05-11T03:46:37;76519.66;;;-143.36;57.91
39209;BME280;24929;51.982;4.664;2023-05-11T03:49:04;76535.72;;;-143.36;58.46
39209;BME280;24929;51.982;4.664;2023-05-11T03:51:31;76531.69;;;-143.36;58.17
39209;BME280;24929;51.982;4.664;2023-05-11T03:53:57;76553.78;;;-143.36;58.36
39209;BME280;24929;51.982;4.664;2023-05-11T03:56:22;76569.81;;;-143.36;58.52
39209;BME280;24929;51.982;4.664;2023-05-11T03:58:48;76565.81;;;-143.36;58.44
39209;BME280;24929;51.982;4.664;2023-05-11T04:01:13;76551.75;;;-143.36;58.10
39209;BME280;24929;51.982;4.664;2023-05-11T04:03:48;76521.66;;;-143.36;57.64
39209;BME280;24929;51.982;4.664;2023-05-11T04:06:15;76555.78;;;-143.36;58.25
39209;BME280;24929;51.982;4.664;2023-05-11T04:08:40;76571.84;;;-143.36;58.16
39209;BME280;24929;51.982;4.664;2023-05-11T04:11:06;76575.84;;;-143.36;58.10
39209;BME280;24929;51.982;4.664;2023-05-11T04:13:31;76603.94;;;-143.36;59.50
39209;BME280;24929;51.982;4.664;2023-05-11T04:15:56;76581.88;;;-143.36;58.94
39209;BME280;24929;51.982;4.664;2023-05-11T04:18:22;76575.84;;;-143.36;59.46
39209;BME280;24929;51.982;4.664;2023-05-11T04:20:47;76579.88;;;-143.36;59.62
39209;BME280;24929;51.982;4.664;2023-05-11T04:23:14;76539.72;;;-143.36;59.44
39209;BME280;24929;51.982;4.664;2023-05-11T04:25:39;76567.81;;;-143.36;59.75
39209;BME280;24929;51.982;4.664;2023-05-11T04:28:05;76565.81;;;-143.36;59.69
39209;BME280;24929;51.982;4.664;2023-05-11T04:30:30;76555.78;;;-143.36;59.20
39209;BME280;24929;51.982;4.664;2023-05-11T04:32:55;76555.78;;;-143.36;58.85
39209;BME280;24929;51.982;4.664;2023-05-11T04:35:21;76555.78;;;-143.36;59.62
39209;BME280;24929;51.982;4.664;2023-05-11T04:37:46;76559.78;;;-143.36;59.49
39209;BME280;24929;51.982;4.664;2023-05-11T04:40:12;76545.75;;;-143.36;59.51
39209;BME280;24929;51.982;4.664;2023-05-11T04:42:37;76551.75;;;-143.36;59.36
39209;BME280;24929;51.982;4.664;2023-05-11T04:45:03;76557.78;;;-143.36;59.63
39209;BME280;24929;51.982;4.664;2023-05-11T04:47:29;76557.78;;;-143.36;59.74
39209;BME280;24929;51.982;4.664;2023-05-11T04:49:54;76557.78;;;-143.36;59.93
39209;BME280;24929;51.982;4.664;2023-05-11T04:52:20;76555.78;;;-143.36;60.00
39209;BME280;24929;51.982;4.664;2023-05-11T04:54:45;76555.78;;;-143.36;60.18
39209;BME280;24929;51.982;4.664;2023-05-11T04:57:11;76583.88;;;-143.36;60.83
39209;BME280;24929;51.982;4.664;2023-05-11T04:59:36;76583.88;;;-143.36;60.62
39209;BME280;24929;51.982;4.664;2023-05-11T05:02:01;76553.78;;;-143.36;60.05
39209;BME280;24929;51.982;4.664;2023-05-11T05:04:27;76535.72;;;-143.36;59.67
39209;BME280;24929;51.982;4.664;2023-05-11T05:06:53;76531.69;;;-143.36;59.76
39209;BME280;24929;51.982;4.664;2023-05-11T05:09:18;76521.66;;;-143.36;59.68
39209;BME280;24929;51.982;4.664;2023-05-11T05:11:44;76529.69;;;-143.36;59.39
39209;BME280;24929;51.982;4.664;2023-05-11T05:14:09;76537.72;;;-143.36;59.67
39209;BME280;24929;51.982;4.664;2023-05-11T05:16:35;76559.78;;;-143.36;59.84
39209;BME280;24929;51.982;4.664;2023-05-11T05:19:00;76537.72;;;-143.36;59.33
39209;BME280;24929;51.982;4.664;2023-05-11T05:21:26;76519.66;;;-143.36;59.19
39209;BME280;24929;51.982;4.664;2023-05-11T05:23:51;76521.66;;;-143.36;58.93
39209;BME280;24929;51.982;4.664;2023-05-11T05:26:16;76525.69;;;-143.36;58.39
39209;BME280;24929;51.982;4.664;2023-05-11T05:28:42;76527.69;;;-143.36;58.20
39209;BME280;24929;51.982;4.664;2023-05-11T05:31:07;76533.72;;;-143.36;58.28
39209;BME280;24929;51.982;4.664;2023-05-11T05:33:32;76521.66;;;-143.36;58.14
39209;BME280;24929;51.982;4.664;2023-05-11T05:35:58;76525.69;;;-143.36;57.79
39209;BME280;24929;51.982;4.664;2023-05-11T05:38:23;76519.66;;;-143.36;57.94
39209;BME280;24929;51.982;4.664;2023-05-11T05:40:49;76513.63;;;-143.36;57.76
39209;BME280;24929;51.982;4.664;2023-05-11T05:43:14;76511.63;;;-143.36;57.79
39209;BME280;24929;51.982;4.664;2023-05-11T05:45:39;76513.63;;;-143.36;57.11
39209;BME280;24929;51.982;4.664;2023-05-11T05:48:05;76525.69;;;-143.36;57.04
39209;BME280;24929;51.982;4.664;2023-05-11T05:50:31;76509.63;;;-143.36;56.74
39209;BME280;24929;51.982;4.664;2023-05-11T05:52:57;76517.66;;;-143.36;56.79
39209;BME280;24929;51.982;4.664;2023-05-11T05:55:22;76519.66;;;-143.36;57.01
39209;BME280;24929;51.982;4.664;2023-05-11T05:57:48;76547.75;;;-143.36;57.92
39209;BME280;24929;51.982;4.664;2023-05-11T06:00:14;76543.75;;;-143.36;58.16
39209;BME280;24929;51.982;4.664;2023-05-11T06:02:40;76559.78;;;-143.36;58.20
39209;BME280;24929;51.982;4.664;2023-05-11T06:05:06;76539.72;;;-143.36;58.43
39209;BME280;24929;51.982;4.664;2023-05-11T06:07:31;76533.72;;;-143.36;57.97
39209;BME280;24929;51.982;4.664;2023-05-11T06:09:57;76511.63;;;-143.36;57.43
39209;BME280;24929;51.982;4.664;2023-05-11T06:12:23;76517.66;;;-143.36;57.22
39209;BME280;24929;51.982;4.664;2023-05-11T06:14:48;76541.72;;;-143.36;58.09
39209;BME280;24929;51.982;4.664;2023-05-11T06:17:14;76529.69;;;-143.36;58.43
39209;BME280;24929;51.982;4.664;2023-05-11T06:19:39;76555.78;;;-143.36;57.99
39209;BME280;24929;51.982;4.664;2023-05-11T06:22:05;76525.69;;;-143.36;58.05
39209;BME280;24929;51.982;4.664;2023-05-11T06:24:30;76485.53;;;-143.36;57.29
39209;BME280;24929;51.982;4.664;2023-05-11T06:26:56;76487.56;;;-143.36;56.89
39209;BME280;24929;51.982;4.664;2023-05-11T06:29:21;76493.56;;;-143.36;56.63
39209;BME280;24929;51.982;4.664;2023-05-11T06:31:47;76495.59;;;-143.36;56.58
39209;BME280;24929;51.982;4.664;2023-05-11T06:34:20;76491.56;;;-143.36;56.37
39209;BME280;24929;51.982;4.664;2023-05-11T06:36:47;76515.66;;;-143.36;56.10
39209;BME280;24929;51.982;4.664;2023-05-11T06:39:12;76543.75;;;-143.36;56.16
39209;BME280;24929;51.982;4.664;2023-05-11T06:41:38;76553.78;;;-143.36;55.99
39209;BME280;24929;51.982;4.664;2023-05-11T06:44:03;76549.75;;;-143.36;56.52
39209;BME280;24929;51.982;4.664;2023-05-11T06:46:30;76563.81;;;-143.36;56.98
39209;BME280;24929;51.982;4.664;2023-05-11T06:48:55;76559.78;;;-143.36;57.43
39209;BME280;24929;51.982;4.664;2023-05-11T06:51:21;76543.75;;;-143.36;57.35
39209;BME280;24929;51.982;4.664;2023-05-11T06:53:57;76471.50;;;-143.36;56.37
39209;BME280;24929;51.982;4.664;2023-05-11T06:56:22;76515.66;;;-143.36;57.22
39209;BME280;24929;51.982;4.664;2023-05-11T06:58:47;76503.59;;;-143.36;56.69
39209;BME280;24929;51.982;4.664;2023-05-11T07:01:13;76493.56;;;-143.36;56.70
39209;BME280;24929;51.982;4.664;2023-05-11T07:03:39;76509.63;;;-143.36;56.56
39209;BME280;24929;51.982;4.664;2023-05-11T07:06:26;76427.34;;;-143.36;56.08
39209;BME280;24929;51.982;4.664;2023-05-11T07:08:52;76473.50;;;-143.36;56.94
39209;BME280;24929;51.982;4.664;2023-05-11T07:11:17;76467.50;;;-143.36;56.85
39209;BME280;24929;51.982;4.664;2023-05-11T07:13:43;76457.44;;;-143.36;56.07
39209;BME280;24929;51.982;4.664;2023-05-11T07:16:09;76449.44;;;-143.36;55.72
39209;BME280;24929;51.982;4.664;2023-05-11T07:18:35;76437.38;;;-143.36;55.78
39209;BME280;24929;51.982;4.664;2023-05-11T07:21:00;76429.34;;;-143.36;54.84
39209;BME280;24929;51.982;4.664;2023-05-11T07:23:25;76425.34;;;-143.36;55.11
39209;BME280;24929;51.982;4.664;2023-05-11T07:25:51;76413.31;;;-143.36;54.85
39209;BME280;24929;51.982;4.664;2023-05-11T07:28:17;76395.25;;;-143.36;54.40
39209;BME280;24929;51.982;4.664;2023-05-11T07:30:43;76373.16;;;-143.36;53.28
39209;BME280;24929;51.982;4.664;2023-05-11T07:33:08;76329.03;;;-143.36;52.10
39209;BME280;24929;51.982;4.664;2023-05-11T07:35:34;76317.00;;;-143.36;52.38
39209;BME280;24929;51.982;4.664;2023-05-11T07:37:59;76286.88;;;-143.36;50.41
39209;BME280;24929;51.982;4.664;2023-05-11T07:40:25;76284.88;;;-143.36;51.06
39209;BME280;24929;51.982;4.664;2023-05-11T07:42:50;76240.75;;;-143.36;50.21
39209;BME280;24929;51.982;4.664;2023-05-11T07:45:16;76254.78;;;-143.36;49.69
39209;BME280;24929;51.982;4.664;2023-05-11T07:47:41;76290.91;;;-143.36;49.33
39209;BME280;24929;51.982;4.664;2023-05-11T07:50:07;76282.88;;;-143.36;48.58
39209;BME280;24929;51.982;4.664;2023-05-11T07:52:32;76296.91;;;-143.36;48.70
39209;BME280;24929;51.982;4.664;2023-05-11T07:54:58;76288.91;;;-143.36;49.05
39209;BME280;24929;51.982;4.664;2023-05-11T07:57:23;76266.81;;;-143.36;49.07
39209;BME280;24929;51.982;4.664;2023-05-11T07:59:49;76339.06;;;-143.36;50.11
39209;BME280;24929;51.982;4.664;2023-05-11T08:02:14;76325.00;;;-143.36;50.20
39209;BME280;24929;51.982;4.664;2023-05-11T08:04:39;76254.78;;;-143.36;49.23
39209;BME280;24929;51.982;4.664;2023-05-11T08:07:05;76198.59;;;-143.36;48.98
39209;BME280;24929;51.982;4.664;2023-05-11T08:09:30;76192.56;;;-143.36;49.13
39209;BME280;24929;51.982;4.664;2023-05-11T08:11:56;76106.28;;;-143.36;46.83
39209;BME280;24929;51.982;4.664;2023-05-11T08:14:24;76144.41;;;-143.36;46.26
39209;BME280;24929;51.982;4.664;2023-05-11T08:16:50;76172.50;;;-143.36;46.10
39209;BME280;24929;51.982;4.664;2023-05-11T08:19:15;76142.41;;;-143.36;45.80
39209;BME280;24929;51.982;4.664;2023-05-11T08:21:41;76104.28;;;-143.36;44.64
39209;BME280;24929;51.982;4.664;2023-05-11T08:24:07;76114.31;;;-143.36;44.97
39209;BME280;24929;51.982;4.664;2023-05-11T08:26:32;76102.28;;;-143.36;45.02
39209;BME280;24929;51.982;4.664;2023-05-11T08:29:01;76060.16;;;-143.36;43.97
39209;BME280;24929;51.982;4.664;2023-05-11T08:31:28;76048.09;;;-143.36;43.88
39209;BME280;24929;51.982;4.664;2023-05-11T08:33:54;76020.03;;;-143.36;43.15
39209;BME280;24929;51.982;4.664;2023-05-11T08:36:19;75935.75;;;-143.36;44.00
39209;BME280;24929;51.982;4.664;2023-05-11T08:38:45;75907.66;;;-143.36;41.74
39209;BME280;24929;51.982;4.664;2023-05-11T08:41:11;75929.72;;;-143.36;42.78
39209;BME280;24929;51.982;4.664;2023-05-11T08:43:38;75931.72;;;-143.36;42.35
39209;BME280;24929;51.982;4.664;2023-05-11T08:46:05;75955.81;;;-143.36;42.28
39209;BME280;24929;51.982;4.664;2023-05-11T08:48:34;75995.94;;;-143.36;42.67
39209;BME280;24929;51.982;4.664;2023-05-11T08:51:00;75973.88;;;-143.36;42.98
39209;BME280;24929;51.982;4.664;2023-05-11T08:53:27;75999.94;;;-143.36;42.57
39209;BME280;24929;51.982;4.664;2023-05-11T08:55:54;75987.91;;;-143.36;42.38
39209;BME280;24929;51.982;4.664;2023-05-11T08:58:20;76001.97;;;-143.36;42.25
39209;BME280;24929;51.982;4.664;2023-05-11T09:00:50;75947.78;;;-143.36;41.70
39209;BME280;24929;51.982;4.664;2023-05-11T09:03:16;75985.91;;;-143.36;41.59
39209;BME280;24929;51.982;4.664;2023-05-11T09:05:46;76022.03;;;-143.36;42.53
39209;BME280;24929;51.982;4.664;2023-05-11T09:08:13;75987.91;;;-143.36;42.44
39209;BME280;24929;51.982;4.664;2023-05-11T09:10:38;76016.00;;;-143.36;42.67
39209;BME280;24929;51.982;4.664;2023-05-11T09:13:04;76024.03;;;-143.36;42.74
39209;BME280;24929;51.982;4.664;2023-05-11T09:15:30;76046.09;;;-143.36;42.55
39209;BME280;24929;51.982;4.664;2023-05-11T09:17:56;76082.22;;;-143.36;42.93
39209;BME280;24929;51.982;4.664;2023-05-11T09:20:29;76046.09;;;-143.36;42.28
39209;BME280;24929;51.982;4.664;2023-05-11T09:22:58;76122.34;;;-143.36;43.23
39209;BME280;24929;51.982;4.664;2023-05-11T09:25:25;76142.41;;;-143.36;44.17
39209;BME280;24929;51.982;4.664;2023-05-11T09:27:51;76114.31;;;-143.36;44.59
39209;BME280;24929;51.982;4.664;2023-05-11T09:30:21;76068.19;;;-143.36;44.44
39209;BME280;24929;51.982;4.664;2023-05-11T09:32:56;76060.16;;;-143.36;43.68
39209;BME280;24929;51.982;4.664;2023-05-11T09:38:11;76040.09;;;-143.36;43.65
39209;BME280;24929;51.982;4.664;2023-05-11T09:40:38;76150.44;;;-143.36;44.20
39209;BME280;24929;51.982;4.664;2023-05-11T09:45:50;76074.19;;;-143.36;43.58
39209;BME280;24929;51.982;4.664;2023-05-11T09:50:41;76096.25;;;-143.36;43.49
39209;BME280;24929;51.982;4.664;2023-05-11T09:53:07;76104.28;;;-143.36;43.66
39209;BME280;24929;51.982;4.664;2023-05-11T09:55:33;76120.34;;;-143.36;43.28
39209;BME280;24929;51.982;4.664;2023-05-11T09:57:59;76104.28;;;-143.36;43.13
39209;BME280;24929;51.982;4.664;2023-05-11T10:00:24;76146.44;;;-143.36;43.51
39209;BME280;24929;51.982;4.664;2023-05-11T10:03:00;76068.19;;;-143.36;43.24
39209;BME280;24929;51.982;4.664;2023-05-11T10:05:27;76148.44;;;-143.36;43.65
39209;BME280;24929;51.982;4.664;2023-05-11T10:08:00;76100.28;;;-143.36;43.35
39209;BME280;24929;51.982;4.664;2023-05-11T10:10:30;76106.28;;;-143.36;43.68
39209;BME280;24929;51.982;4.664;2023-05-11T10:13:00;76116.31;;;-143.36;43.75
39209;BME280;24929;51.982;4.664;2023-05-11T10:15:27;76146.44;;;-143.36;43.55
39209;BME280;24929;51.982;4.664;2023-05-11T10:17:54;76198.59;;;-143.36;43.86
39209;BME280;24929;51.982;4.664;2023-05-11T10:20:20;76186.56;;;-143.36;43.94
39209;BME280;24929;51.982;4.664;2023-05-11T10:22:46;76184.56;;;-143.36;43.88
39209;BME280;24929;51.982;4.664;2023-05-11T10:25:13;76178.53;;;-143.36;43.54
39209;BME280;24929;51.982;4.664;2023-05-11T10:27:40;76204.63;;;-143.36;43.41
39209;BME280;24929;51.982;4.664;2023-05-11T10:30:09;76174.53;;;-143.36;43.84
39209;BME280;24929;51.982;4.664;2023-05-11T10:32:35;76228.69;;;-143.36;44.97
39209;BME280;24929;51.982;4.664;2023-05-11T10:35:05;76296.91;;;-143.36;46.47
39209;BME280;24929;51.982;4.664;2023-05-11T10:37:32;76296.91;;;-143.36;46.15
39209;BME280;24929;51.982;4.664;2023-05-11T10:39:58;76272.84;;;-143.36;46.44
39209;BME280;24929;51.982;4.664;2023-05-11T10:56:55;76166.50;;;-143.36;44.33
39209;BME280;24929;51.982;4.664;2023-05-11T11:02:22;76198.59;;;-143.36;46.65
39209;BME280;24929;51.982;4.664;2023-05-11T11:04:50;76188.56;;;-143.36;47.24
39209;BME280;24929;51.982;4.664;2023-05-11T11:07:17;76226.69;;;-143.36;47.48
39209;BME280;24929;51.982;4.664;2023-05-11T11:09:57;76130.38;;;-143.36;46.70
39209;BME280;24929;51.982;4.664;2023-05-11T11:12:25;76132.38;;;-143.36;47.41
39209;BME280;24929;51.982;4.664;2023-05-11T11:15:02;76110.31;;;-143.36;47.66
39209;BME280;24929;51.982;4.664;2023-05-11T11:17:30;76184.56;;;-143.36;48.48
39209;BME280;24929;51.982;4.664;2023-05-11T11:20:06;76176.53;;;-143.36;48.12
39209;BME280;24929;51.982;4.664;2023-05-11T11:25:09;76190.56;;;-143.36;49.36
39209;BME280;24929;51.982;4.664;2023-05-11T11:30:23;76134.38;;;-143.36;49.35
39209;BME280;24929;51.982;4.664;2023-05-11T11:38:04;76228.69;;;-143.36;48.87
39209;BME280;24929;51.982;4.664;2023-05-11T11:40:39;76248.75;;;-143.36;49.60
39209;BME280;24929;51.982;4.664;2023-05-11T11:48:15;76276.84;;;-143.36;52.14
39209;BME280;24929;51.982;4.664;2023-05-11T11:50:46;76284.88;;;-143.36;51.10
39209;BME280;24929;51.982;4.664;2023-05-11T11:54:20;76216.66;;;-143.36;50.72
39209;BME280;24929;51.982;4.664;2023-05-11T12:01:12;76280.88;;;-143.36;51.29
39209;BME280;24929;51.982;4.664;2023-05-11T12:03:39;76242.75;;;-143.36;49.32
39209;BME280;24929;51.982;4.664;2023-05-11T12:06:07;76212.66;;;-143.36;48.37
39209;BME280;24929;51.982;4.664;2023-05-11T12:08:34;76156.47;;;-143.36;47.85
39209;BME280;24929;51.982;4.664;2023-05-11T12:11:01;76158.47;;;-143.36;46.13
39209;BME280;24929;51.982;4.664;2023-05-11T12:13:27;76034.06;;;-143.36;45.08
39209;BME280;24929;51.982;4.664;2023-05-11T12:18:34;76098.28;;;-143.36;45.53
39209;BME280;24929;51.982;4.664;2023-05-11T12:21:01;76110.31;;;-143.36;45.95
39209;BME280;24929;51.982;4.664;2023-05-11T12:23:55;75995.94;;;-143.36;43.91
39209;BME280;24929;51.982;4.664;2023-05-11T12:26:23;75909.66;;;-143.36;42.13
39209;BME280;24929;51.982;4.664;2023-05-11T12:28:50;75955.81;;;-143.36;42.43
39209;BME280;24929;51.982;4.664;2023-05-11T12:31:19;75999.94;;;-143.36;42.36
39209;BME280;24929;51.982;4.664;2023-05-11T12:33:49;75945.78;;;-143.36;41.96
39209;BME280;24929;51.982;4.664;2023-05-11T12:36:16;75965.84;;;-143.36;41.71
39209;BME280;24929;51.982;4.664;2023-05-11T12:38:48;75965.84;;;-143.36;41.17
39209;BME280;24929;51.982;4.664;2023-05-11T12:41:20;75943.78;;;-143.36;41.98
39209;BME280;24929;51.982;4.664;2023-05-11T12:43:50;76092.25;;;-143.36;43.75
39209;BME280;24929;51.982;4.664;2023-05-11T12:46:20;76118.34;;;-143.36;43.39
39209;BME280;24929;51.982;4.664;2023-05-11T12:48:47;76222.69;;;-143.36;44.42
39209;BME280;24929;51.982;4.664;2023-05-11T12:51:43;76128.38;;;-143.36;43.04
39209;BME280;24929;51.982;4.664;2023-05-11T12:54:39;76136.41;;;-143.36;42.63
39209;BME280;24929;51.982;4.664;2023-05-11T12:57:07;76204.63;;;-143.36;43.93
39209;BME280;24929;51.982;4.664;2023-05-11T12:59:36;76166.50;;;-143.36;42.96
39209;BME280;24929;51.982;4.664;2023-05-11T13:02:16;76130.38;;;-143.36;43.59
39209;BME280;24929;51.982;4.664;2023-05-11T13:04:43;76260.81;;;-143.36;44.79
39209;BME280;24929;51.982;4.664;2023-05-11T13:07:09;76144.41;;;-143.36;44.73
39209;BME280;24929;51.982;4.664;2023-05-11T13:10:01;76064.16;;;-143.36;43.04
39209;BME280;24929;51.982;4.664;2023-05-11T13:12:28;76102.28;;;-143.36;43.25
39209;BME280;24929;51.982;4.664;2023-05-11T13:18:05;75981.91;;;-143.36;43.04
39209;BME280;24929;51.982;4.664;2023-05-11T13:20:32;75981.91;;;-143.36;42.66
39209;BME280;24929;51.982;4.664;2023-05-11T13:23:20;76072.19;;;-143.36;42.38
39209;BME280;24929;51.982;4.664;2023-05-11T13:26:14;76052.13;;;-143.36;42.40
39209;BME280;24929;51.982;4.664;2023-05-11T13:28:46;76138.41;;;-143.36;43.01
39209;BME280;24929;51.982;4.664;2023-05-11T13:31:11;76106.28;;;-143.36;42.73
39209;BME280;24929;51.982;4.664;2023-05-11T13:33:36;76078.22;;;-143.36;42.73
39209;BME280;24929;51.982;4.664;2023-05-11T13:36:02;76064.16;;;-143.36;42.59
39209;BME280;24929;51.982;4.664;2023-05-11T13:38:28;76076.19;;;-143.36;42.93
39209;BME280;24929;51.982;4.664;2023-05-11T13:40:54;76092.25;;;-143.36;42.69
39209;BME280;24929;51.982;4.664;2023-05-11T13:43:20;76078.22;;;-143.36;43.24
39209;BME280;24929;51.982;4.664;2023-05-11T13:45:45;76112.31;;;-143.36;44.10
39209;BME280;24929;51.982;4.664;2023-05-11T13:48:10;76110.31;;;-143.36;43.42
39209;BME280;24929;51.982;4.664;2023-05-11T13:50:36;76184.56;;;-143.36;45.63
39209;BME280;24929;51.982;4.664;2023-05-11T13:53:01;76184.56;;;-143.36;45.20